首页
METAR-TAF:

METAR-TAF

机场 :

格尔夫波特, 密西西比州, 美国

纬度: 30-24-43N, 经度: 089-04-51W, 海拔: 8米

当前天气观测

该预报发布于22分钟前的05:35 UTC
风速5节,风向
温度 28°C
湿度 74%
气压 1012 hPa
能見度: 16.1公里
散云层高于1900英尺
散云层高于2400英尺

METAR: KGPT 250535Z 19005KT 10SM SCT019 SCT024 28/23 A2988 RMK AO2 T02780233

时间: 00:57 (05:57 UTC)

预报

该预报发布于37分钟前的05:20 UTC
预报有效从25日的 06点(UTC)到 26日的 06点(UTC)
风速10节,风向
能見度: 10公里
少量云层高于3000英尺
少量云层高于25000英尺
从 25日的 0800点(UTC)
风速6节,风向南转西南
能見度: 10公里
多云层高于2000英尺
多云层高于2500英尺
从 25日的 1200点(UTC)
风速8节,风向南转西南
能見度: 10公里
少量云层高于2500英尺
散云层高于25000英尺

TAF: KGPT 250520Z 2506/2606 18010KT P6SM FEW030 FEW250 FM250800 21006KT P6SM BKN020 BKN025 FM251200 20008KT P6SM FEW025 SCT250

超过4000个机场的气象观测和天气预报(METAR&TAF报告)。

可查询的气象台以黄色和红色小点在地图上表示。

将鼠标移到小点上方,可查看气象台名称。

然后点击查看天气观测和预报。

如需切换地图:点击带黑十字的绿色按钮放大地图;点击带横线的绿色按钮缩小地图;或者点击绿色箭头查看邻近地区的地图。


METAR-TAF: